sensor_id;sensor_type;location;lat;lon;timestamp;pressure;altitude;pressure_sealevel;temperature;humidity
12913;BME280;6524;51.368;11.984;2023-11-19T00:01:17;152831.38;;;4.70;74.01
12913;BME280;6524;51.368;11.984;2023-11-19T00:06:18;152688.50;;;4.14;74.96
12913;BME280;6524;51.368;11.984;2023-11-19T00:11:18;152669.03;;;4.06;76.07
12913;BME280;6524;51.368;11.984;2023-11-19T00:16:19;152614.53;;;3.85;77.14
12913;BME280;6524;51.368;11.984;2023-11-19T00:21:19;152596.31;;;3.78;78.49
12913;BME280;6524;51.368;11.984;2023-11-19T00:26:19;152678.13;;;4.10;77.85
12913;BME280;6524;51.368;11.984;2023-11-19T00:31:20;152783.31;;;4.51;77.08
12913;BME280;6524;51.368;11.984;2023-11-19T00:36:20;152680.69;;;4.11;78.82
12913;BME280;6524;51.368;11.984;2023-11-19T00:41:21;152705.38;;;4.20;78.97
12913;BME280;6524;51.368;11.984;2023-11-19T00:46:22;152735.28;;;4.32;77.76
12913;BME280;6524;51.368;11.984;2023-11-19T00:51:23;152817.06;;;4.64;76.69
12913;BME280;6524;51.368;11.984;2023-11-19T00:56:23;152756.06;;;4.40;76.62
12913;BME280;6524;51.368;11.984;2023-11-19T05:02:35;153282.38;;;6.47;77.69
12913;BME280;6524;51.368;11.984;2023-11-19T05:07:35;153229.03;;;6.26;78.72
12913;BME280;6524;51.368;11.984;2023-11-19T05:12:36;153265.41;;;6.41;78.28
12913;BME280;6524;51.368;11.984;2023-11-19T05:17:36;153213.44;;;6.20;80.00
12913;BME280;6524;51.368;11.984;2023-11-19T05:22:37;153184.81;;;6.09;79.87
12913;BME280;6524;51.368;11.984;2023-11-19T05:27:38;153166.63;;;6.02;80.47
12913;BME280;6524;51.368;11.984;2023-11-19T05:32:38;153271.94;;;6.43;79.16
12913;BME280;6524;51.368;11.984;2023-11-19T05:37:38;153299.28;;;6.54;78.96
12913;BME280;6524;51.368;11.984;2023-11-19T05:42:39;153348.69;;;6.73;77.82
12913;BME280;6524;51.368;11.984;2023-11-19T05:47:41;153366.88;;;6.81;77.30
12913;BME280;6524;51.368;11.984;2023-11-19T05:52:41;153244.66;;;6.33;79.68
12913;BME280;6524;51.368;11.984;2023-11-19T05:57:42;153273.22;;;6.44;80.03
12913;BME280;6524;51.368;11.984;2023-11-19T06:02:42;153359.06;;;6.78;79.01
12913;BME280;6524;51.368;11.984;2023-11-19T06:07:42;153365.59;;;6.80;79.16
12913;BME280;6524;51.368;11.984;2023-11-19T06:12:44;153377.28;;;6.85;79.60
12913;BME280;6524;51.368;11.984;2023-11-19T06:17:46;153395.50;;;6.92;79.49
12913;BME280;6524;51.368;11.984;2023-11-19T06:22:48;153403.31;;;6.95;79.81
12913;BME280;6524;51.368;11.984;2023-11-19T06:27:48;153437.13;;;7.08;78.73
12913;BME280;6524;51.368;11.984;2023-11-19T06:32:49;153538.69;;;7.48;76.97
12913;BME280;6524;51.368;11.984;2023-11-19T06:37:49;153442.34;;;7.10;78.35
12913;BME280;6524;51.368;11.984;2023-11-19T06:42:49;153429.31;;;7.05;79.25
12913;BME280;6524;51.368;11.984;2023-11-19T06:47:52;153374.69;;;6.84;79.75
12913;BME280;6524;51.368;11.984;2023-11-19T06:52:52;153413.72;;;6.99;79.37
12913;BME280;6524;51.368;11.984;2023-11-19T06:57:53;153530.88;;;7.45;77.68
12913;BME280;6524;51.368;11.984;2023-11-19T07:02:53;153566.00;;;7.59;77.89
12913;BME280;6524;51.368;11.984;2023-11-19T07:07:53;153610.28;;;7.76;77.30
12913;BME280;6524;51.368;11.984;2023-11-19T07:12:56;153689.69;;;8.07;76.35
12913;BME280;6524;51.368;11.984;2023-11-19T07:17:58;153663.59;;;7.97;76.53
12913;BME280;6524;51.368;11.984;2023-11-19T07:22:59;153746.97;;;8.30;75.75
12913;BME280;6524;51.368;11.984;2023-11-19T07:27:59;153733.94;;;8.25;75.61
12913;BME280;6524;51.368;11.984;2023-11-19T07:33:00;153766.47;;;8.38;76.03
12913;BME280;6524;51.368;11.984;2023-11-19T07:38:00;153801.72;;;8.51;76.12
12913;BME280;6524;51.368;11.984;2023-11-19T07:43:00;153898.09;;;8.89;74.91
12913;BME280;6524;51.368;11.984;2023-11-19T07:48:01;153994.53;;;9.27;73.13
12913;BME280;6524;51.368;11.984;2023-11-19T07:53:01;153984.06;;;9.23;73.49
12913;BME280;6524;51.368;11.984;2023-11-19T07:58:04;153951.50;;;9.10;73.82
12913;BME280;6524;51.368;11.984;2023-11-19T08:03:05;153887.66;;;8.85;74.57
12913;BME280;6524;51.368;11.984;2023-11-19T08:08:05;153950.19;;;9.10;73.44
12913;BME280;6524;51.368;11.984;2023-11-19T08:13:06;154020.56;;;9.37;72.77
12913;BME280;6524;51.368;11.984;2023-11-19T08:18:07;154062.25;;;9.54;72.49
12913;BME280;6524;51.368;11.984;2023-11-19T08:23:09;154079.19;;;9.60;72.78
12913;BME280;6524;51.368;11.984;2023-11-19T08:28:10;154234.44;;;10.21;70.72
12913;BME280;6524;51.368;11.984;2023-11-19T08:33:10;154234.44;;;10.21;70.89
12913;BME280;6524;51.368;11.984;2023-11-19T08:38:11;154192.72;;;10.05;71.84
12913;BME280;6524;51.368;11.984;2023-11-19T08:43:11;154097.53;;;9.67;72.93
12913;BME280;6524;51.368;11.984;2023-11-19T08:48:11;154110.53;;;9.72;72.43
12913;BME280;6524;51.368;11.984;2023-11-19T08:53:12;154140.53;;;9.84;73.30
12913;BME280;6524;51.368;11.984;2023-11-19T08:58:12;154240.94;;;10.24;72.20
12913;BME280;6524;51.368;11.984;2023-11-19T09:03:13;154234.44;;;10.21;72.40
12913;BME280;6524;51.368;11.984;2023-11-19T09:08:13;154381.84;;;10.79;71.88
12913;BME280;6524;51.368;11.984;2023-11-19T09:13:13;154492.75;;;11.22;69.57
12913;BME280;6524;51.368;11.984;2023-11-19T09:18:14;154445.75;;;11.04;69.87
12913;BME280;6524;51.368;11.984;2023-11-19T09:23:14;154302.22;;;10.48;72.21
12913;BME280;6524;51.368;11.984;2023-11-19T09:28:14;154385.78;;;10.80;71.47
12913;BME280;6524;51.368;11.984;2023-11-19T09:33:15;154370.06;;;10.74;70.55
12913;BME280;6524;51.368;11.984;2023-11-19T09:38:15;154500.56;;;11.25;69.44
12913;BME280;6524;51.368;11.984;2023-11-19T09:43:16;154471.84;;;11.14;69.84
12913;BME280;6524;51.368;11.984;2023-11-19T09:48:18;154501.88;;;11.26;70.07
12913;BME280;6524;51.368;11.984;2023-11-19T09:53:18;154478.38;;;11.17;70.33
12913;BME280;6524;51.368;11.984;2023-11-19T09:58:20;154427.50;;;10.97;71.61
12913;BME280;6524;51.368;11.984;2023-11-19T10:03:22;154394.91;;;10.84;72.24
12913;BME280;6524;51.368;11.984;2023-11-19T10:08:24;154364.84;;;10.72;72.71
12913;BME280;6524;51.368;11.984;2023-11-19T10:13:28;154393.59;;;10.83;71.70
12913;BME280;6524;51.368;11.984;2023-11-19T10:18:29;154464.06;;;11.11;71.31
12913;BME280;6524;51.368;11.984;2023-11-19T10:23:30;154866.22;;;12.68;66.90
12913;BME280;6524;51.368;11.984;2023-11-19T10:28:40;155381.38;;;14.70;60.58
12913;BME280;6524;51.368;11.984;2023-11-19T10:33:45;155781.97;;;16.26;55.75
12913;BME280;6524;51.368;11.984;2023-11-19T10:38:54;155705.94;;;15.97;54.58
12913;BME280;6524;51.368;11.984;2023-11-19T10:43:54;155614.34;;;15.61;55.98
12913;BME280;6524;51.368;11.984;2023-11-19T10:48:55;155857.91;;;16.56;53.71
12913;BME280;6524;51.368;11.984;2023-11-19T10:53:57;155763.66;;;16.19;54.23
12913;BME280;6524;51.368;11.984;2023-11-19T10:59:01;155616.94;;;15.62;54.90
12913;BME280;6524;51.368;11.984;2023-11-19T11:04:04;155080.53;;;13.52;59.81
12913;BME280;6524;51.368;11.984;2023-11-19T11:09:08;155315.94;;;14.44;57.59
12913;BME280;6524;51.368;11.984;2023-11-19T11:14:13;155792.44;;;16.30;53.28
12913;BME280;6524;51.368;11.984;2023-11-19T11:19:16;156023.03;;;17.20;51.02
12913;BME280;6524;51.368;11.984;2023-11-19T11:24:25;156095.09;;;17.48;49.47
12913;BME280;6524;51.368;11.984;2023-11-19T11:29:48;156096.41;;;17.49;49.58
12913;BME280;6524;51.368;11.984;2023-11-19T11:35:06;155816.00;;;16.39;50.94
12913;BME280;6524;51.368;11.984;2023-11-19T11:40:17;155776.72;;;16.24;51.58
12913;BME280;6524;51.368;11.984;2023-11-19T11:45:18;155622.19;;;15.64;51.29
12913;BME280;6524;51.368;11.984;2023-11-19T11:50:20;155507.00;;;15.19;52.80
12913;BME280;6524;51.368;11.984;2023-11-19T11:55:35;155419.34;;;14.85;53.61
12913;BME280;6524;51.368;11.984;2023-11-19T12:00:40;155564.63;;;15.41;54.01
12913;BME280;6524;51.368;11.984;2023-11-19T12:05:43;155562.00;;;15.40;52.60
12913;BME280;6524;51.368;11.984;2023-11-19T12:10:45;155584.22;;;15.49;52.75
12913;BME280;6524;51.368;11.984;2023-11-19T12:20:58;155504.34;;;15.18;52.74
12913;BME280;6524;51.368;11.984;2023-11-19T12:26:00;155397.09;;;14.76;52.70
12913;BME280;6524;51.368;11.984;2023-11-19T12:31:10;155245.31;;;14.17;53.25
12913;BME280;6524;51.368;11.984;2023-11-19T12:36:10;155125.03;;;13.70;55.34
12913;BME280;6524;51.368;11.984;2023-11-19T12:41:10;155250.56;;;14.19;53.79
12913;BME280;6524;51.368;11.984;2023-11-19T12:46:21;155194.34;;;13.97;53.96
12913;BME280;6524;51.368;11.984;2023-11-19T12:51:30;155160.31;;;13.83;54.39
12913;BME280;6524;51.368;11.984;2023-11-19T12:56:31;155049.19;;;13.40;54.17
12913;BME280;6524;51.368;11.984;2023-11-19T13:01:34;155038.72;;;13.36;56.14
12913;BME280;6524;51.368;11.984;2023-11-19T13:06:35;155025.66;;;13.31;55.24
12913;BME280;6524;51.368;11.984;2023-11-19T13:11:45;154975.97;;;13.11;54.65
12913;BME280;6524;51.368;11.984;2023-11-19T13:16:46;154978.63;;;13.12;54.27
12913;BME280;6524;51.368;11.984;2023-11-19T13:21:47;154923.75;;;12.91;54.43
12913;BME280;6524;51.368;11.984;2023-11-19T13:26:48;154782.59;;;12.36;54.52
12913;BME280;6524;51.368;11.984;2023-11-19T13:31:49;154774.75;;;12.33;54.65
12913;BME280;6524;51.368;11.984;2023-11-19T13:36:50;154795.69;;;12.41;54.77
12913;BME280;6524;51.368;11.984;2023-11-19T13:41:50;154730.38;;;12.15;56.51
12913;BME280;6524;51.368;11.984;2023-11-19T13:46:51;154731.69;;;12.16;56.75
12913;BME280;6524;51.368;11.984;2023-11-19T13:51:51;154881.94;;;12.75;56.18
12913;BME280;6524;51.368;11.984;2023-11-19T13:56:57;155000.84;;;13.21;55.80
12913;BME280;6524;51.368;11.984;2023-11-19T14:01:58;154939.41;;;12.97;55.04
12913;BME280;6524;51.368;11.984;2023-11-19T14:06:58;154840.06;;;12.58;56.06
12913;BME280;6524;51.368;11.984;2023-11-19T14:11:59;154828.31;;;12.54;56.80
12913;BME280;6524;51.368;11.984;2023-11-19T14:16:59;154824.44;;;12.52;56.62
12913;BME280;6524;51.368;11.984;2023-11-19T14:22:01;154782.59;;;12.36;56.38
12913;BME280;6524;51.368;11.984;2023-11-19T14:27:02;154649.44;;;11.84;57.23
12913;BME280;6524;51.368;11.984;2023-11-19T14:32:03;154645.50;;;11.82;56.87
12913;BME280;6524;51.368;11.984;2023-11-19T14:37:04;154691.22;;;12.00;57.48
12913;BME280;6524;51.368;11.984;2023-11-19T14:42:04;154640.31;;;11.80;58.49
12913;BME280;6524;51.368;11.984;2023-11-19T14:47:05;154648.13;;;11.83;60.05
12913;BME280;6524;51.368;11.984;2023-11-19T14:52:06;154539.72;;;11.41;60.22
12913;BME280;6524;51.368;11.984;2023-11-19T14:57:07;154618.06;;;11.71;60.03
12913;BME280;6524;51.368;11.984;2023-11-19T15:02:10;154602.38;;;11.65;60.66
12913;BME280;6524;51.368;11.984;2023-11-19T15:07:12;154584.13;;;11.58;60.94
12913;BME280;6524;51.368;11.984;2023-11-19T15:12:12;154586.72;;;11.59;60.96
12913;BME280;6524;51.368;11.984;2023-11-19T15:17:12;154565.81;;;11.51;61.36
12913;BME280;6524;51.368;11.984;2023-11-19T15:22:13;154547.56;;;11.44;61.99
12913;BME280;6524;51.368;11.984;2023-11-19T15:27:13;154524.06;;;11.34;62.37
12913;BME280;6524;51.368;11.984;2023-11-19T15:32:14;154461.41;;;11.10;62.86
12913;BME280;6524;51.368;11.984;2023-11-19T15:37:14;154430.09;;;10.98;63.26
12913;BME280;6524;51.368;11.984;2023-11-19T15:42:15;154276.16;;;10.37;64.26
12913;BME280;6524;51.368;11.984;2023-11-19T15:47:16;154320.50;;;10.55;64.00
12913;BME280;6524;51.368;11.984;2023-11-19T15:52:16;154247.44;;;10.26;63.66
12913;BME280;6524;51.368;11.984;2023-11-19T15:57:16;154234.44;;;10.21;63.34
12913;BME280;6524;51.368;11.984;2023-11-19T16:02:17;154251.38;;;10.28;62.93
12913;BME280;6524;51.368;11.984;2023-11-19T16:07:19;154158.78;;;9.91;63.56
12913;BME280;6524;51.368;11.984;2023-11-19T16:12:21;154205.72;;;10.10;63.52
12913;BME280;6524;51.368;11.984;2023-11-19T16:17:22;154222.66;;;10.16;62.86
12913;BME280;6524;51.368;11.984;2023-11-19T16:22:23;154227.91;;;10.18;62.74
12913;BME280;6524;51.368;11.984;2023-11-19T16:27:25;154231.78;;;10.20;62.80
12913;BME280;6524;51.368;11.984;2023-11-19T16:32:26;154315.28;;;10.53;62.05
12913;BME280;6524;51.368;11.984;2023-11-19T16:37:26;154313.97;;;10.52;61.38
12913;BME280;6524;51.368;11.984;2023-11-19T16:42:26;154237.00;;;10.22;62.10
12913;BME280;6524;51.368;11.984;2023-11-19T16:47:27;154341.34;;;10.63;60.40
12913;BME280;6524;51.368;11.984;2023-11-19T16:52:27;154237.00;;;10.22;60.62
12913;BME280;6524;51.368;11.984;2023-11-19T16:57:28;154182.25;;;10.01;61.12
12913;BME280;6524;51.368;11.984;2023-11-19T17:02:29;154216.19;;;10.14;60.88
12913;BME280;6524;51.368;11.984;2023-11-19T17:07:30;154255.25;;;10.29;60.38
12913;BME280;6524;51.368;11.984;2023-11-19T17:12:30;154221.38;;;10.16;61.09
12913;BME280;6524;51.368;11.984;2023-11-19T17:17:34;154216.19;;;10.14;61.29
12913;BME280;6524;51.368;11.984;2023-11-19T17:22:38;154179.66;;;10.00;62.51
12913;BME280;6524;51.368;11.984;2023-11-19T17:27:40;154117.06;;;9.75;63.70
12913;BME280;6524;51.368;11.984;2023-11-19T17:32:42;154098.84;;;9.68;64.72
12913;BME280;6524;51.368;11.984;2023-11-19T17:37:42;154064.91;;;9.55;65.34
12913;BME280;6524;51.368;11.984;2023-11-19T17:42:44;154127.47;;;9.79;65.13
12913;BME280;6524;51.368;11.984;2023-11-19T17:47:44;154124.88;;;9.78;65.09
12913;BME280;6524;51.368;11.984;2023-11-19T17:52:45;154038.81;;;9.44;66.44
12913;BME280;6524;51.368;11.984;2023-11-19T17:57:45;153917.63;;;8.97;67.83
12913;BME280;6524;51.368;11.984;2023-11-19T18:02:46;154070.09;;;9.57;66.56
12913;BME280;6524;51.368;11.984;2023-11-19T18:07:52;154080.56;;;9.61;65.62
12913;BME280;6524;51.368;11.984;2023-11-19T18:12:52;154153.59;;;9.89;64.84
12913;BME280;6524;51.368;11.984;2023-11-19T18:17:53;154012.75;;;9.34;66.52
12913;BME280;6524;51.368;11.984;2023-11-19T18:22:53;154021.88;;;9.38;66.46
12913;BME280;6524;51.368;11.984;2023-11-19T18:27:54;154033.63;;;9.42;66.57
12913;BME280;6524;51.368;11.984;2023-11-19T18:32:55;154028.38;;;9.40;66.70
12913;BME280;6524;51.368;11.984;2023-11-19T18:37:55;154044.03;;;9.46;66.42
12913;BME280;6524;51.368;11.984;2023-11-19T18:42:55;154074.03;;;9.58;66.01
12913;BME280;6524;51.368;11.984;2023-11-19T18:47:56;154083.13;;;9.62;66.37
12913;BME280;6524;51.368;11.984;2023-11-19T18:52:56;154074.03;;;9.58;66.21
12913;BME280;6524;51.368;11.984;2023-11-19T18:57:57;154107.94;;;9.71;65.75
12913;BME280;6524;51.368;11.984;2023-11-19T19:02:58;154096.25;;;9.67;65.79
12913;BME280;6524;51.368;11.984;2023-11-19T19:07:59;154093.56;;;9.66;66.42
12913;BME280;6524;51.368;11.984;2023-11-19T19:12:59;154161.41;;;9.92;65.50
12913;BME280;6524;51.368;11.984;2023-11-19T19:18:00;154196.59;;;10.06;64.83
12913;BME280;6524;51.368;11.984;2023-11-19T19:23:01;154257.91;;;10.30;63.44
12913;BME280;6524;51.368;11.984;2023-11-19T19:28:02;154289.19;;;10.42;62.88
12913;BME280;6524;51.368;11.984;2023-11-19T19:33:03;154161.41;;;9.92;64.41
12913;BME280;6524;51.368;11.984;2023-11-19T19:38:03;154244.84;;;10.25;63.16
12913;BME280;6524;51.368;11.984;2023-11-19T19:43:03;154278.72;;;10.38;62.83
12913;BME280;6524;51.368;11.984;2023-11-19T19:48:04;154270.91;;;10.35;62.52
12913;BME280;6524;51.368;11.984;2023-11-19T19:53:05;154325.69;;;10.57;62.56
12913;BME280;6524;51.368;11.984;2023-11-19T19:58:06;154216.19;;;10.14;64.14
12913;BME280;6524;51.368;11.984;2023-11-19T20:03:08;154217.47;;;10.14;64.66
12913;BME280;6524;51.368;11.984;2023-11-19T20:08:08;154212.25;;;10.12;65.43
12913;BME280;6524;51.368;11.984;2023-11-19T20:13:08;154156.19;;;9.90;66.14
12913;BME280;6524;51.368;11.984;2023-11-19T20:18:09;154210.94;;;10.12;65.63
12913;BME280;6524;51.368;11.984;2023-11-19T20:23:12;154274.84;;;10.37;65.07
12913;BME280;6524;51.368;11.984;2023-11-19T20:28:12;154122.31;;;9.77;67.23
12913;BME280;6524;51.368;11.984;2023-11-19T20:33:13;154192.72;;;10.05;66.45
12913;BME280;6524;51.368;11.984;2023-11-19T20:38:13;154114.47;;;9.74;67.09
12913;BME280;6524;51.368;11.984;2023-11-19T20:43:14;154165.31;;;9.94;66.67
12913;BME280;6524;51.368;11.984;2023-11-19T20:48:15;154184.88;;;10.02;66.63
12913;BME280;6524;51.368;11.984;2023-11-19T20:53:15;154111.84;;;9.73;66.97
12913;BME280;6524;51.368;11.984;2023-11-19T20:58:16;154212.25;;;10.12;66.33
12913;BME280;6524;51.368;11.984;2023-11-19T21:03:16;154203.13;;;10.09;66.46
12913;BME280;6524;51.368;11.984;2023-11-19T21:08:18;154213.53;;;10.13;66.77
12913;BME280;6524;51.368;11.984;2023-11-19T21:13:19;154216.19;;;10.14;66.57
12913;BME280;6524;51.368;11.984;2023-11-19T21:18:19;154171.81;;;9.96;66.93
12913;BME280;6524;51.368;11.984;2023-11-19T21:23:20;154179.66;;;10.00;67.61
12913;BME280;6524;51.368;11.984;2023-11-19T21:28:25;154239.59;;;10.23;66.82
12913;BME280;6524;51.368;11.984;2023-11-19T21:33:30;154329.63;;;10.58;65.47
12913;BME280;6524;51.368;11.984;2023-11-19T21:38:30;154312.69;;;10.52;65.61
12913;BME280;6524;51.368;11.984;2023-11-19T21:43:31;154234.44;;;10.21;66.50
12913;BME280;6524;51.368;11.984;2023-11-19T21:48:33;154229.19;;;10.19;66.17
12913;BME280;6524;51.368;11.984;2023-11-19T21:53:34;154158.78;;;9.91;66.42
12913;BME280;6524;51.368;11.984;2023-11-19T21:58:34;154218.78;;;10.15;66.10
12913;BME280;6524;51.368;11.984;2023-11-19T22:03:34;154195.31;;;10.06;65.74
12913;BME280;6524;51.368;11.984;2023-11-19T22:08:36;154216.19;;;10.14;65.31
12913;BME280;6524;51.368;11.984;2023-11-19T22:13:40;154203.13;;;10.09;64.99
12913;BME280;6524;51.368;11.984;2023-11-19T22:18:41;154203.13;;;10.09;64.89
12913;BME280;6524;51.368;11.984;2023-11-19T22:23:43;154161.41;;;9.92;65.33
12913;BME280;6524;51.368;11.984;2023-11-19T22:28:43;154230.50;;;10.19;64.40
12913;BME280;6524;51.368;11.984;2023-11-19T22:33:43;154237.00;;;10.22;65.34
12913;BME280;6524;51.368;11.984;2023-11-19T22:38:45;154177.06;;;9.99;66.48
12913;BME280;6524;51.368;11.984;2023-11-19T22:43:48;154192.72;;;10.05;66.55
12913;BME280;6524;51.368;11.984;2023-11-19T22:48:49;154177.06;;;9.99;66.80
12913;BME280;6524;51.368;11.984;2023-11-19T22:53:49;154226.59;;;10.18;66.99
12913;BME280;6524;51.368;11.984;2023-11-19T22:58:50;154195.31;;;10.06;67.97
12913;BME280;6524;51.368;11.984;2023-11-19T23:03:51;154137.94;;;9.83;68.63
12913;BME280;6524;51.368;11.984;2023-11-19T23:08:52;154173.13;;;9.97;68.15
12913;BME280;6524;51.368;11.984;2023-11-19T23:13:52;154079.19;;;9.60;69.50
12913;BME280;6524;51.368;11.984;2023-11-19T23:18:52;154080.56;;;9.61;69.98
12913;BME280;6524;51.368;11.984;2023-11-19T23:23:53;154117.06;;;9.75;69.67
12913;BME280;6524;51.368;11.984;2023-11-19T23:28:53;154161.41;;;9.92;68.84
12913;BME280;6524;51.368;11.984;2023-11-19T23:33:54;154156.19;;;9.90;69.23
12913;BME280;6524;51.368;11.984;2023-11-19T23:38:54;154203.13;;;10.09;68.33
12913;BME280;6524;51.368;11.984;2023-11-19T23:43:55;154281.38;;;10.39;67.06
12913;BME280;6524;51.368;11.984;2023-11-19T23:48:55;154179.66;;;10.00;67.73
12913;BME280;6524;51.368;11.984;2023-11-19T23:53:56;154190.06;;;10.04;68.38
